createdAt,value
2022-11-09T00:00:56.353Z,94213.16
2022-11-09T00:05:59.131Z,94196.66
2022-11-09T00:11:08.692Z,94201.69
2022-11-09T00:16:12.650Z,94210.47
2022-11-09T00:21:20.004Z,94211.38
2022-11-09T00:26:22.102Z,94208.34
2022-11-09T00:31:24.872Z,94215.72
2022-11-09T00:36:27.985Z,94211.94
2022-11-09T00:41:29.907Z,94193.88
2022-11-09T00:46:31.790Z,94203.00
2022-11-09T00:51:34.258Z,94203.91
2022-11-09T00:56:36.732Z,94179.94
2022-11-09T01:01:39.014Z,94180.81
2022-11-09T01:06:41.014Z,94178.03
2022-11-09T01:11:45.063Z,94181.84
2022-11-09T01:16:47.843Z,94180.72
2022-11-09T01:21:49.880Z,94178.81
2022-11-09T01:26:51.824Z,94183.38
2022-11-09T01:31:56.085Z,94186.84
2022-11-09T01:36:57.867Z,94182.50
2022-11-09T01:41:59.964Z,94177.38
2022-11-09T01:47:05.631Z,94193.75
2022-11-09T01:52:14.856Z,94187.84
2022-11-09T01:57:24.719Z,94190.50
2022-11-09T02:02:27.588Z,94176.59
2022-11-09T02:07:29.593Z,94183.16
2022-11-09T02:12:34.161Z,94191.63
2022-11-09T02:17:35.959Z,94186.94
2022-11-09T02:22:38.088Z,94187.59
2022-11-09T02:27:41.099Z,94192.84
2022-11-09T02:32:43.180Z,94190.03
2022-11-09T02:37:48.753Z,94182.22
2022-11-09T02:42:51.265Z,94187.25
2022-11-09T02:47:53.226Z,94193.16
2022-11-09T02:52:55.241Z,94200.81
2022-11-09T02:57:58.432Z,94195.34
2022-11-09T03:03:00.747Z,94199.84
2022-11-09T03:08:02.788Z,94191.34
2022-11-09T03:13:08.307Z,94189.81
2022-11-09T03:18:10.349Z,94190.91
2022-11-09T03:23:12.779Z,94193.09
2022-11-09T03:28:15.712Z,94186.09
2022-11-09T03:33:19.519Z,94198.34
2022-11-09T03:38:21.695Z,94202.59
2022-11-09T03:43:24.924Z,94197.78
2022-11-09T03:48:26.801Z,94201.78
2022-11-09T03:53:28.686Z,94200.69
2022-11-09T03:58:30.626Z,94190.88
2022-11-09T04:03:32.448Z,94200.03
2022-11-09T04:08:34.279Z,94202.25
2022-11-09T04:13:36.168Z,94204.47
2022-11-09T04:18:38.061Z,94214.06
2022-11-09T04:23:39.968Z,94202.22
2022-11-09T04:28:41.870Z,94214.78
2022-11-09T04:33:43.756Z,94210.09
2022-11-09T04:38:45.704Z,94214.09
2022-11-09T04:43:47.588Z,94219.88
2022-11-09T04:48:49.497Z,94222.44
2022-11-09T04:53:51.557Z,94223.22
2022-11-09T04:58:53.633Z,94226.69
2022-11-09T05:03:55.524Z,94235.34
2022-11-09T05:08:58.330Z,94240.81
2022-11-09T05:14:00.591Z,94241.13
2022-11-09T05:19:02.449Z,94236.47
2022-11-09T05:24:04.789Z,94247.28
2022-11-09T05:29:09.940Z,94249.50
2022-11-09T05:34:13.301Z,94252.03
2022-11-09T05:39:15.324Z,94255.81
2022-11-09T05:44:17.171Z,94248.00
2022-11-09T05:49:18.986Z,94252.09
2022-11-09T05:54:20.972Z,94263.88
2022-11-09T05:59:22.840Z,94267.69
2022-11-09T06:04:24.672Z,94281.63
2022-11-09T06:09:26.526Z,94271.84
2022-11-09T06:14:28.398Z,94284.56
2022-11-09T06:19:30.173Z,94285.03
2022-11-09T06:24:32.109Z,94293.94
2022-11-09T06:29:34.055Z,94297.84
2022-11-09T06:34:35.952Z,94290.94
2022-11-09T06:39:37.712Z,94306.06
2022-11-09T06:44:39.613Z,94310.31
2022-11-09T06:49:41.435Z,94315.38
2022-11-09T06:54:43.311Z,94312.91
2022-11-09T06:59:45.181Z,94316.03
2022-11-09T07:04:47.307Z,94313.69
2022-11-09T07:09:49.203Z,94317.94
2022-11-09T07:14:51.296Z,94309.44
2022-11-09T07:19:53.203Z,94290.81
2022-11-09T07:24:56.012Z,94300.19
2022-11-09T07:29:57.902Z,94321.13
2022-11-09T07:34:59.789Z,94325.03
2022-11-09T07:40:01.712Z,94322.34
2022-11-09T07:45:03.801Z,94321.56
2022-11-09T07:50:06.175Z,94325.47
2022-11-09T07:55:08.608Z,94326.91
2022-11-09T08:00:11.721Z,94342.28
2022-11-09T08:05:13.972Z,94354.03
2022-11-09T08:10:16.112Z,94371.81
2022-11-09T08:15:18.093Z,94381.69
2022-11-09T08:20:20.651Z,94397.25
2022-11-09T08:25:22.662Z,94406.16
2022-11-09T08:30:25.024Z,94422.28
2022-11-09T08:35:27.524Z,94438.47
2022-11-09T08:40:29.980Z,94449.72
2022-11-09T08:45:36.320Z,94460.56
2022-11-09T08:50:38.359Z,94461.34
2022-11-09T08:55:40.319Z,94470.94
2022-11-09T09:00:42.316Z,94473.78
2022-11-09T09:05:44.529Z,94460.34
2022-11-09T09:10:46.539Z,94472.25
2022-11-09T09:15:49.290Z,94463.81
2022-11-09T09:20:51.700Z,94471.06
2022-11-09T09:25:57.685Z,94474.03
2022-11-09T09:31:01.727Z,94478.44
2022-11-09T09:36:03.961Z,94493.38
2022-11-09T09:41:07.157Z,94494.50
2022-11-09T09:46:28.956Z,94499.56
2022-11-09T09:51:42.122Z,94525.19
2022-11-09T09:56:46.165Z,94515.13
2022-11-09T10:01:49.205Z,94490.94
2022-11-09T10:07:15.188Z,94497.88
2022-11-09T10:12:22.684Z,94505.09
2022-11-09T10:17:41.638Z,94495.69
2022-11-09T10:22:51.707Z,94521.44
2022-11-09T10:27:56.807Z,94526.78
2022-11-09T10:33:10.714Z,94509.47
2022-11-09T10:38:26.433Z,94524.22
2022-11-09T10:43:46.954Z,94528.91
2022-11-09T10:49:21.384Z,94529.72
2022-11-09T10:54:41.890Z,94538.16
2022-11-09T11:00:02.624Z,94534.72
2022-11-09T11:05:26.496Z,94536.53
2022-11-09T11:10:47.072Z,94538.22
2022-11-09T11:16:32.571Z,94536.47
2022-11-09T11:22:11.371Z,94541.19
2022-11-09T11:27:43.687Z,94549.69
2022-11-09T11:33:15.527Z,94533.28
2022-11-09T11:38:40.001Z,94527.25
2022-11-09T11:44:24.666Z,94516.81
2022-11-09T11:50:09.057Z,94510.72
2022-11-09T11:55:47.670Z,94501.56
2022-11-09T12:01:35.884Z,94505.25
2022-11-09T12:07:26.633Z,94495.13
2022-11-09T12:13:08.540Z,94494.03
2022-11-09T12:18:41.855Z,94497.81
2022-11-09T12:24:26.804Z,94493.59
2022-11-09T12:30:13.152Z,94491.63
2022-11-09T12:35:41.252Z,94491.88
2022-11-09T12:41:08.401Z,94493.13
2022-11-09T12:46:34.446Z,94482.41
2022-11-09T12:51:58.836Z,94476.16
2022-11-09T12:57:25.372Z,94480.72
2022-11-09T13:03:00.773Z,94475.81
2022-11-09T13:08:26.463Z,94456.81
2022-11-09T13:13:47.627Z,94465.78
2022-11-09T13:19:08.948Z,94469.13
2022-11-09T13:24:35.043Z,94465.75
2022-11-09T13:29:56.900Z,94466.78
2022-11-09T13:35:41.896Z,94473.59
2022-11-09T13:41:03.519Z,94466.53
2022-11-09T13:46:32.013Z,94461.06
2022-11-09T13:51:52.719Z,94464.09
2022-11-09T13:57:13.935Z,94464.31
2022-11-09T14:02:34.149Z,94471.75
2022-11-09T14:07:56.006Z,94465.06
2022-11-09T14:13:36.240Z,94468.34
2022-11-09T14:19:07.702Z,94480.88
2022-11-09T14:24:30.909Z,94482.00
2022-11-09T14:30:01.102Z,94471.38
2022-11-09T14:35:34.329Z,94481.19
2022-11-09T14:40:55.558Z,94494.72
2022-11-09T14:46:19.608Z,94491.25
2022-11-09T14:51:40.740Z,94490.38
2022-11-09T14:57:02.271Z,94491.72
2022-11-09T15:02:24.214Z,94491.94
2022-11-09T15:07:47.370Z,94503.13
2022-11-09T15:13:07.989Z,94503.75
2022-11-09T15:18:33.727Z,94511.34
2022-11-09T15:24:15.642Z,94516.25
2022-11-09T15:29:39.502Z,94514.25
2022-11-09T15:35:00.175Z,94514.13
2022-11-09T15:40:23.208Z,94513.34
2022-11-09T15:45:43.737Z,94518.34
2022-11-09T15:51:04.013Z,94514.53
2022-11-09T15:56:24.996Z,94516.19
2022-11-09T16:01:45.583Z,94513.94
2022-11-09T16:07:06.811Z,94525.97
2022-11-09T16:12:27.475Z,94520.91
2022-11-09T16:17:50.443Z,94524.97
2022-11-09T16:23:10.899Z,94527.28
2022-11-09T16:28:31.341Z,94531.50
2022-11-09T16:33:51.899Z,94535.47
2022-11-09T16:39:18.554Z,94539.88
2022-11-09T16:44:40.403Z,94541.41
2022-11-09T16:50:00.892Z,94548.09
2022-11-09T16:55:21.362Z,94554.94
2022-11-09T17:06:27.495Z,94562.84
2022-11-09T17:11:48.146Z,94578.47
2022-11-09T17:17:08.585Z,94579.75
2022-11-09T17:22:29.358Z,94586.34
2022-11-09T17:27:51.057Z,94591.41
2022-11-09T17:33:11.363Z,94588.78
2022-11-09T17:38:31.930Z,94597.13
2022-11-09T17:43:52.744Z,94612.22
2022-11-09T17:49:13.211Z,94610.03
2022-11-09T17:54:37.013Z,94617.91
2022-11-09T17:59:59.570Z,94631.28
2022-11-09T18:05:20.286Z,94631.16
2022-11-09T18:10:43.603Z,94643.09
2022-11-09T18:16:17.707Z,94642.19
2022-11-09T18:21:38.436Z,94641.88
2022-11-09T18:26:59.642Z,94641.69
2022-11-09T18:32:20.126Z,94639.03
2022-11-09T18:37:40.654Z,94646.59
2022-11-09T18:43:01.302Z,94645.50
2022-11-09T18:48:22.333Z,94652.72
2022-11-09T18:53:45.018Z,94655.38
2022-11-09T18:59:05.469Z,94652.53
2022-11-09T19:04:25.871Z,94662.44
2022-11-09T19:09:46.003Z,94664.97
2022-11-09T19:15:07.052Z,94673.75
2022-11-09T19:20:28.747Z,94673.09
2022-11-09T19:25:50.307Z,94675.78
2022-11-09T19:31:14.799Z,94692.09
2022-11-09T19:36:35.380Z,94698.53
2022-11-09T19:41:56.217Z,94701.69
2022-11-09T19:47:17.750Z,94700.41
2022-11-09T19:52:38.920Z,94688.56
2022-11-09T19:57:59.304Z,94711.66
2022-11-09T20:03:20.138Z,94721.38
2022-11-09T20:08:41.057Z,94720.41
2022-11-09T20:14:02.517Z,94727.94
2022-11-09T20:19:23.934Z,94734.03
2022-11-09T20:24:44.601Z,94733.41
2022-11-09T20:30:06.162Z,94743.56
2022-11-09T20:35:26.461Z,94737.75
2022-11-09T20:40:54.791Z,94752.56
2022-11-09T20:46:18.315Z,94758.66
2022-11-09T20:51:39.504Z,94763.31
2022-11-09T20:57:00.175Z,94765.69
2022-11-09T21:02:20.856Z,94762.34
2022-11-09T21:07:41.524Z,94761.28
2022-11-09T21:13:01.583Z,94779.03
2022-11-09T21:18:22.518Z,94787.63
2022-11-09T21:24:02.298Z,94779.28
2022-11-09T21:29:43.251Z,94789.56
2022-11-09T21:35:03.897Z,94789.41
2022-11-09T21:40:24.890Z,94793.75
2022-11-09T21:45:49.912Z,94797.81
2022-11-09T21:51:10.587Z,94796.84
2022-11-09T21:56:31.686Z,94801.44
2022-11-09T22:01:53.011Z,94798.22
2022-11-09T22:07:13.728Z,94793.94
2022-11-09T22:12:52.991Z,94795.94
2022-11-09T22:18:33.422Z,94785.19
2022-11-09T22:23:53.910Z,94793.81
2022-11-09T22:29:14.300Z,94805.50
2022-11-09T22:34:34.634Z,94813.81
2022-11-09T22:39:55.092Z,94800.59
2022-11-09T22:45:15.680Z,94818.75
2022-11-09T22:50:37.127Z,94810.66
2022-11-09T22:55:59.119Z,94811.06
2022-11-09T23:01:20.671Z,94820.50
2022-11-09T23:06:41.105Z,94820.31
2022-11-09T23:12:01.724Z,94826.84
2022-11-09T23:17:41.043Z,94831.69
2022-11-09T23:23:01.244Z,94832.38
2022-11-09T23:28:22.192Z,94835.63
2022-11-09T23:33:43.224Z,94829.72
2022-11-09T23:39:04.191Z,94835.13
2022-11-09T23:44:24.458Z,94839.97
2022-11-09T23:49:44.618Z,94838.91
2022-11-09T23:55:05.542Z,94846.88
